Metar z połowy godziny Komunikat METAR ze strony awiacja.imgw.pl Metar G30 EPNA METAR EPNA 170900Z 15004KT CAVOK 25/15 Q1017 RMK 248 054 0/0=